sensor_id;sensor_type;location;lat;lon;timestamp;P1;durP1;ratioP1;P2;durP2;ratioP2
69769;SDS011;57282;52.514;13.458;2022-12-18T00:02:19;22.05;;;6.90;;
69769;SDS011;57282;52.514;13.458;2022-12-18T00:04:46;24.17;;;6.95;;
69769;SDS011;57282;52.514;13.458;2022-12-18T00:07:13;30.67;;;8.27;;
69769;SDS011;57282;52.514;13.458;2022-12-18T00:09:40;24.92;;;7.65;;
69769;SDS011;57282;52.514;13.458;2022-12-18T00:12:06;22.58;;;7.78;;
69769;SDS011;57282;52.514;13.458;2022-12-18T00:14:33;18.10;;;6.43;;
69769;SDS011;57282;52.514;13.458;2022-12-18T00:17:03;26.48;;;7.53;;
69769;SDS011;57282;52.514;13.458;2022-12-18T00:19:29;28.73;;;8.13;;
69769;SDS011;57282;52.514;13.458;2022-12-18T00:21:56;21.27;;;6.63;;
69769;SDS011;57282;52.514;13.458;2022-12-18T00:24:23;27.58;;;6.78;;
69769;SDS011;57282;52.514;13.458;2022-12-18T00:26:49;30.40;;;7.78;;
69769;SDS011;57282;52.514;13.458;2022-12-18T00:29:16;30.13;;;8.23;;
69769;SDS011;57282;52.514;13.458;2022-12-18T00:31:42;28.53;;;7.93;;
69769;SDS011;57282;52.514;13.458;2022-12-18T00:34:11;30.95;;;7.95;;
69769;SDS011;57282;52.514;13.458;2022-12-18T00:36:39;27.92;;;8.15;;
69769;SDS011;57282;52.514;13.458;2022-12-18T00:39:06;26.30;;;7.78;;
69769;SDS011;57282;52.514;13.458;2022-12-18T00:41:33;25.83;;;8.77;;
69769;SDS011;57282;52.514;13.458;2022-12-18T00:44:17;24.50;;;7.03;;
69769;SDS011;57282;52.514;13.458;2022-12-18T00:46:46;24.92;;;7.22;;
69769;SDS011;57282;52.514;13.458;2022-12-18T00:49:15;24.80;;;7.15;;
69769;SDS011;57282;52.514;13.458;2022-12-18T00:51:43;28.88;;;7.22;;
69769;SDS011;57282;52.514;13.458;2022-12-18T00:54:10;19.23;;;6.30;;
69769;SDS011;57282;52.514;13.458;2022-12-18T00:56:37;21.50;;;6.33;;
69769;SDS011;57282;52.514;13.458;2022-12-18T00:59:05;25.42;;;7.63;;
69769;SDS011;57282;52.514;13.458;2022-12-18T01:01:32;24.73;;;7.05;;
69769;SDS011;57282;52.514;13.458;2022-12-18T01:03:59;25.65;;;7.95;;
69769;SDS011;57282;52.514;13.458;2022-12-18T01:06:29;21.35;;;6.82;;
69769;SDS011;57282;52.514;13.458;2022-12-18T01:08:56;28.20;;;7.73;;
69769;SDS011;57282;52.514;13.458;2022-12-18T01:11:23;26.85;;;7.63;;
69769;SDS011;57282;52.514;13.458;2022-12-18T01:13:51;28.00;;;8.27;;
69769;SDS011;57282;52.514;13.458;2022-12-18T01:16:18;29.23;;;7.40;;
69769;SDS011;57282;52.514;13.458;2022-12-18T01:18:45;25.67;;;7.30;;
69769;SDS011;57282;52.514;13.458;2022-12-18T01:21:13;23.77;;;7.27;;
69769;SDS011;57282;52.514;13.458;2022-12-18T01:23:43;26.67;;;7.45;;
69769;SDS011;57282;52.514;13.458;2022-12-18T01:26:10;22.85;;;7.22;;
69769;SDS011;57282;52.514;13.458;2022-12-18T01:28:39;23.48;;;7.05;;
69769;SDS011;57282;52.514;13.458;2022-12-18T01:31:13;23.73;;;6.85;;
69769;SDS011;57282;52.514;13.458;2022-12-18T01:33:43;23.63;;;6.57;;
69769;SDS011;57282;52.514;13.458;2022-12-18T01:36:14;26.38;;;7.57;;
69769;SDS011;57282;52.514;13.458;2022-12-18T01:38:45;28.67;;;7.78;;
69769;SDS011;57282;52.514;13.458;2022-12-18T01:41:13;29.33;;;8.95;;
69769;SDS011;57282;52.514;13.458;2022-12-18T01:43:50;27.50;;;7.97;;
69769;SDS011;57282;52.514;13.458;2022-12-18T01:46:19;28.73;;;8.07;;
69769;SDS011;57282;52.514;13.458;2022-12-18T01:48:51;26.83;;;7.43;;
69769;SDS011;57282;52.514;13.458;2022-12-18T01:51:22;24.52;;;7.75;;
69769;SDS011;57282;52.514;13.458;2022-12-18T01:53:51;31.25;;;9.40;;
69769;SDS011;57282;52.514;13.458;2022-12-18T01:56:18;35.72;;;9.10;;
69769;SDS011;57282;52.514;13.458;2022-12-18T01:58:49;39.07;;;11.03;;
69769;SDS011;57282;52.514;13.458;2022-12-18T02:01:22;32.70;;;9.52;;
69769;SDS011;57282;52.514;13.458;2022-12-18T02:03:51;33.03;;;9.82;;
69769;SDS011;57282;52.514;13.458;2022-12-18T02:06:19;37.95;;;10.77;;
69769;SDS011;57282;52.514;13.458;2022-12-18T02:09:00;40.75;;;11.13;;
69769;SDS011;57282;52.514;13.458;2022-12-18T02:11:39;40.30;;;12.00;;
69769;SDS011;57282;52.514;13.458;2022-12-18T02:14:17;48.83;;;11.43;;
69769;SDS011;57282;52.514;13.458;2022-12-18T02:16:56;40.10;;;11.38;;
69769;SDS011;57282;52.514;13.458;2022-12-18T02:19:38;47.15;;;12.25;;
69769;SDS011;57282;52.514;13.458;2022-12-18T02:22:25;49.47;;;12.50;;
69769;SDS011;57282;52.514;13.458;2022-12-18T02:25:06;46.60;;;11.20;;
69769;SDS011;57282;52.514;13.458;2022-12-18T02:27:52;43.53;;;11.13;;
69769;SDS011;57282;52.514;13.458;2022-12-18T02:30:24;49.38;;;13.30;;
69769;SDS011;57282;52.514;13.458;2022-12-18T02:32:55;46.55;;;12.43;;
69769;SDS011;57282;52.514;13.458;2022-12-18T02:35:26;49.00;;;12.77;;
69769;SDS011;57282;52.514;13.458;2022-12-18T02:37:56;45.73;;;11.33;;
69769;SDS011;57282;52.514;13.458;2022-12-18T02:40:25;44.17;;;11.82;;
69769;SDS011;57282;52.514;13.458;2022-12-18T02:42:55;46.70;;;12.35;;
69769;SDS011;57282;52.514;13.458;2022-12-18T02:45:33;42.63;;;10.20;;
69769;SDS011;57282;52.514;13.458;2022-12-18T02:47:59;48.35;;;12.60;;
69769;SDS011;57282;52.514;13.458;2022-12-18T02:50:29;54.33;;;13.17;;
69769;SDS011;57282;52.514;13.458;2022-12-18T02:53:04;49.55;;;12.27;;
69769;SDS011;57282;52.514;13.458;2022-12-18T02:55:43;42.22;;;11.15;;
69769;SDS011;57282;52.514;13.458;2022-12-18T02:58:27;35.70;;;9.95;;
69769;SDS011;57282;52.514;13.458;2022-12-18T03:01:07;42.15;;;12.45;;
69769;SDS011;57282;52.514;13.458;2022-12-18T03:03:41;40.83;;;11.10;;
69769;SDS011;57282;52.514;13.458;2022-12-18T03:06:17;37.92;;;10.65;;
69769;SDS011;57282;52.514;13.458;2022-12-18T03:08:51;45.55;;;10.27;;
69769;SDS011;57282;52.514;13.458;2022-12-18T03:11:24;44.92;;;10.20;;
69769;SDS011;57282;52.514;13.458;2022-12-18T03:14:12;36.50;;;8.93;;
69769;SDS011;57282;52.514;13.458;2022-12-18T03:16:43;40.97;;;10.40;;
69769;SDS011;57282;52.514;13.458;2022-12-18T03:19:15;38.15;;;10.15;;
69769;SDS011;57282;52.514;13.458;2022-12-18T03:21:48;36.10;;;10.43;;
69769;SDS011;57282;52.514;13.458;2022-12-18T03:24:19;35.28;;;9.20;;
69769;SDS011;57282;52.514;13.458;2022-12-18T03:26:50;31.27;;;9.77;;
69769;SDS011;57282;52.514;13.458;2022-12-18T03:29:26;33.27;;;8.60;;
69769;SDS011;57282;52.514;13.458;2022-12-18T03:32:01;27.80;;;8.23;;
69769;SDS011;57282;52.514;13.458;2022-12-18T03:34:34;31.77;;;9.55;;
69769;SDS011;57282;52.514;13.458;2022-12-18T03:37:04;33.55;;;9.25;;
69769;SDS011;57282;52.514;13.458;2022-12-18T03:39:33;30.08;;;8.15;;
69769;SDS011;57282;52.514;13.458;2022-12-18T03:42:04;26.37;;;8.23;;
69769;SDS011;57282;52.514;13.458;2022-12-18T03:44:42;34.55;;;8.27;;
69769;SDS011;57282;52.514;13.458;2022-12-18T03:47:20;34.47;;;10.02;;
69769;SDS011;57282;52.514;13.458;2022-12-18T03:49:55;27.25;;;8.25;;
69769;SDS011;57282;52.514;13.458;2022-12-18T03:52:30;25.67;;;8.00;;
69769;SDS011;57282;52.514;13.458;2022-12-18T03:55:04;22.40;;;7.23;;
69769;SDS011;57282;52.514;13.458;2022-12-18T03:57:35;28.15;;;8.75;;
69769;SDS011;57282;52.514;13.458;2022-12-18T04:00:06;29.13;;;7.90;;
69769;SDS011;57282;52.514;13.458;2022-12-18T04:02:37;29.55;;;8.73;;
69769;SDS011;57282;52.514;13.458;2022-12-18T04:05:08;27.77;;;9.23;;
69769;SDS011;57282;52.514;13.458;2022-12-18T04:07:40;23.97;;;7.37;;
69769;SDS011;57282;52.514;13.458;2022-12-18T04:10:10;30.02;;;8.30;;
69769;SDS011;57282;52.514;13.458;2022-12-18T04:12:40;33.67;;;9.00;;
69769;SDS011;57282;52.514;13.458;2022-12-18T04:15:09;27.85;;;7.70;;
69769;SDS011;57282;52.514;13.458;2022-12-18T04:17:38;30.25;;;9.45;;
69769;SDS011;57282;52.514;13.458;2022-12-18T04:20:11;32.47;;;8.20;;
69769;SDS011;57282;52.514;13.458;2022-12-18T04:22:37;28.38;;;7.10;;
69769;SDS011;57282;52.514;13.458;2022-12-18T04:25:04;28.90;;;8.38;;
69769;SDS011;57282;52.514;13.458;2022-12-18T04:27:31;27.58;;;6.25;;
69769;SDS011;57282;52.514;13.458;2022-12-18T04:29:58;27.83;;;8.45;;
69769;SDS011;57282;52.514;13.458;2022-12-18T04:32:26;25.00;;;7.10;;
69769;SDS011;57282;52.514;13.458;2022-12-18T04:34:53;28.33;;;6.75;;
69769;SDS011;57282;52.514;13.458;2022-12-18T04:37:19;24.73;;;7.78;;
69769;SDS011;57282;52.514;13.458;2022-12-18T04:39:46;24.90;;;7.00;;
69769;SDS011;57282;52.514;13.458;2022-12-18T04:42:13;24.65;;;7.80;;
69769;SDS011;57282;52.514;13.458;2022-12-18T04:44:39;23.90;;;6.93;;
69769;SDS011;57282;52.514;13.458;2022-12-18T04:47:06;24.75;;;6.65;;
69769;SDS011;57282;52.514;13.458;2022-12-18T04:49:34;25.23;;;7.40;;
69769;SDS011;57282;52.514;13.458;2022-12-18T04:52:01;25.42;;;7.13;;
69769;SDS011;57282;52.514;13.458;2022-12-18T04:54:28;20.77;;;6.15;;
69769;SDS011;57282;52.514;13.458;2022-12-18T04:56:54;23.77;;;6.33;;
69769;SDS011;57282;52.514;13.458;2022-12-18T04:59:21;21.55;;;6.88;;
69769;SDS011;57282;52.514;13.458;2022-12-18T05:01:48;26.73;;;7.13;;
69769;SDS011;57282;52.514;13.458;2022-12-18T05:04:14;25.73;;;7.65;;
69769;SDS011;57282;52.514;13.458;2022-12-18T05:06:42;32.08;;;9.55;;
69769;SDS011;57282;52.514;13.458;2022-12-18T05:09:09;26.17;;;6.77;;
69769;SDS011;57282;52.514;13.458;2022-12-18T05:11:35;27.38;;;7.35;;
69769;SDS011;57282;52.514;13.458;2022-12-18T05:14:02;27.60;;;7.68;;
69769;SDS011;57282;52.514;13.458;2022-12-18T05:16:29;24.70;;;5.90;;
69769;SDS011;57282;52.514;13.458;2022-12-18T05:18:55;25.17;;;6.57;;
69769;SDS011;57282;52.514;13.458;2022-12-18T05:21:22;28.20;;;6.87;;
69769;SDS011;57282;52.514;13.458;2022-12-18T05:23:50;33.55;;;7.82;;
69769;SDS011;57282;52.514;13.458;2022-12-18T05:26:17;33.97;;;8.88;;
69769;SDS011;57282;52.514;13.458;2022-12-18T05:28:44;26.55;;;7.60;;
69769;SDS011;57282;52.514;13.458;2022-12-18T05:31:12;32.47;;;8.45;;
69769;SDS011;57282;52.514;13.458;2022-12-18T05:33:39;32.57;;;8.10;;
69769;SDS011;57282;52.514;13.458;2022-12-18T05:36:06;30.25;;;8.15;;
69769;SDS011;57282;52.514;13.458;2022-12-18T05:38:37;30.60;;;7.93;;
69769;SDS011;57282;52.514;13.458;2022-12-18T05:41:06;36.67;;;8.98;;
69769;SDS011;57282;52.514;13.458;2022-12-18T05:43:35;32.35;;;8.75;;
69769;SDS011;57282;52.514;13.458;2022-12-18T05:46:04;31.87;;;7.97;;
69769;SDS011;57282;52.514;13.458;2022-12-18T05:48:32;32.08;;;7.95;;
69769;SDS011;57282;52.514;13.458;2022-12-18T05:51:03;34.78;;;8.63;;
69769;SDS011;57282;52.514;13.458;2022-12-18T05:53:32;41.35;;;10.02;;
69769;SDS011;57282;52.514;13.458;2022-12-18T05:55:59;31.33;;;8.75;;
69769;SDS011;57282;52.514;13.458;2022-12-18T05:58:29;33.60;;;8.63;;
69769;SDS011;57282;52.514;13.458;2022-12-18T06:00:56;33.72;;;9.25;;
69769;SDS011;57282;52.514;13.458;2022-12-18T06:03:24;33.95;;;9.60;;
69769;SDS011;57282;52.514;13.458;2022-12-18T06:05:51;33.13;;;9.10;;
69769;SDS011;57282;52.514;13.458;2022-12-18T06:08:17;34.03;;;10.18;;
69769;SDS011;57282;52.514;13.458;2022-12-18T06:10:49;36.47;;;8.13;;
69769;SDS011;57282;52.514;13.458;2022-12-18T06:13:17;36.47;;;10.00;;
69769;SDS011;57282;52.514;13.458;2022-12-18T06:15:46;47.17;;;10.30;;
69769;SDS011;57282;52.514;13.458;2022-12-18T06:18:12;41.20;;;9.82;;
69769;SDS011;57282;52.514;13.458;2022-12-18T06:20:39;41.78;;;11.48;;
69769;SDS011;57282;52.514;13.458;2022-12-18T06:23:06;44.33;;;9.60;;
69769;SDS011;57282;52.514;13.458;2022-12-18T06:25:33;39.35;;;10.65;;
69769;SDS011;57282;52.514;13.458;2022-12-18T06:27:59;34.85;;;9.77;;
69769;SDS011;57282;52.514;13.458;2022-12-18T06:30:26;40.58;;;11.38;;
69769;SDS011;57282;52.514;13.458;2022-12-18T06:32:54;42.35;;;10.93;;
69769;SDS011;57282;52.514;13.458;2022-12-18T06:35:21;31.97;;;9.23;;
69769;SDS011;57282;52.514;13.458;2022-12-18T06:37:48;37.55;;;9.95;;
69769;SDS011;57282;52.514;13.458;2022-12-18T06:40:15;34.58;;;9.68;;
69769;SDS011;57282;52.514;13.458;2022-12-18T06:42:42;32.95;;;8.57;;
69769;SDS011;57282;52.514;13.458;2022-12-18T06:45:08;33.10;;;9.43;;
69769;SDS011;57282;52.514;13.458;2022-12-18T06:47:36;36.37;;;8.63;;
69769;SDS011;57282;52.514;13.458;2022-12-18T06:50:04;31.27;;;9.43;;
69769;SDS011;57282;52.514;13.458;2022-12-18T06:52:32;31.60;;;9.38;;
69769;SDS011;57282;52.514;13.458;2022-12-18T06:54:59;31.33;;;8.57;;
69769;SDS011;57282;52.514;13.458;2022-12-18T06:57:26;36.30;;;9.73;;
69769;SDS011;57282;52.514;13.458;2022-12-18T06:59:53;33.13;;;9.57;;
69769;SDS011;57282;52.514;13.458;2022-12-18T07:02:20;37.45;;;9.20;;
69769;SDS011;57282;52.514;13.458;2022-12-18T07:04:49;34.72;;;9.73;;
69769;SDS011;57282;52.514;13.458;2022-12-18T07:07:17;34.45;;;8.95;;
69769;SDS011;57282;52.514;13.458;2022-12-18T07:09:45;33.03;;;10.27;;
69769;SDS011;57282;52.514;13.458;2022-12-18T07:12:12;33.50;;;9.23;;
69769;SDS011;57282;52.514;13.458;2022-12-18T07:14:39;30.17;;;8.85;;
69769;SDS011;57282;52.514;13.458;2022-12-18T07:17:07;35.25;;;10.70;;
69769;SDS011;57282;52.514;13.458;2022-12-18T07:19:33;29.02;;;8.95;;
69769;SDS011;57282;52.514;13.458;2022-12-18T07:22:00;34.85;;;9.48;;
69769;SDS011;57282;52.514;13.458;2022-12-18T07:24:29;33.40;;;9.13;;
69769;SDS011;57282;52.514;13.458;2022-12-18T07:26:55;34.30;;;9.25;;
69769;SDS011;57282;52.514;13.458;2022-12-18T07:29:22;35.78;;;9.80;;
69769;SDS011;57282;52.514;13.458;2022-12-18T07:31:49;31.77;;;8.48;;
69769;SDS011;57282;52.514;13.458;2022-12-18T07:34:16;36.05;;;10.05;;
69769;SDS011;57282;52.514;13.458;2022-12-18T07:36:42;30.63;;;9.47;;
69769;SDS011;57282;52.514;13.458;2022-12-18T07:39:10;34.30;;;9.23;;
69769;SDS011;57282;52.514;13.458;2022-12-18T07:41:38;30.48;;;7.88;;
69769;SDS011;57282;52.514;13.458;2022-12-18T07:44:08;32.97;;;8.65;;
69769;SDS011;57282;52.514;13.458;2022-12-18T07:46:36;31.05;;;8.20;;
69769;SDS011;57282;52.514;13.458;2022-12-18T07:49:03;32.77;;;8.23;;
69769;SDS011;57282;52.514;13.458;2022-12-18T07:51:30;28.17;;;8.30;;
69769;SDS011;57282;52.514;13.458;2022-12-18T07:53:57;37.88;;;8.93;;
69769;SDS011;57282;52.514;13.458;2022-12-18T07:56:23;36.60;;;9.40;;
69769;SDS011;57282;52.514;13.458;2022-12-18T07:58:51;35.67;;;9.52;;
69769;SDS011;57282;52.514;13.458;2022-12-18T08:01:18;31.80;;;8.60;;
69769;SDS011;57282;52.514;13.458;2022-12-18T08:03:45;33.08;;;10.68;;
69769;SDS011;57282;52.514;13.458;2022-12-18T08:06:11;34.97;;;8.73;;
69769;SDS011;57282;52.514;13.458;2022-12-18T08:08:38;28.67;;;9.02;;
69769;SDS011;57282;52.514;13.458;2022-12-18T08:11:06;32.50;;;7.97;;
69769;SDS011;57282;52.514;13.458;2022-12-18T08:13:33;34.13;;;9.80;;
69769;SDS011;57282;52.514;13.458;2022-12-18T08:16:01;26.25;;;8.00;;
69769;SDS011;57282;52.514;13.458;2022-12-18T08:18:33;26.63;;;7.95;;
69769;SDS011;57282;52.514;13.458;2022-12-18T08:21:09;31.45;;;8.30;;
69769;SDS011;57282;52.514;13.458;2022-12-18T08:23:36;31.15;;;7.78;;
69769;SDS011;57282;52.514;13.458;2022-12-18T08:26:05;24.80;;;7.27;;
69769;SDS011;57282;52.514;13.458;2022-12-18T08:28:33;26.40;;;8.40;;
69769;SDS011;57282;52.514;13.458;2022-12-18T08:31:02;42.28;;;14.85;;
69769;SDS011;57282;52.514;13.458;2022-12-18T08:33:29;29.88;;;7.85;;
69769;SDS011;57282;52.514;13.458;2022-12-18T08:35:56;28.83;;;8.98;;
69769;SDS011;57282;52.514;13.458;2022-12-18T08:38:25;24.73;;;6.87;;
69769;SDS011;57282;52.514;13.458;2022-12-18T08:40:57;29.13;;;7.72;;
69769;SDS011;57282;52.514;13.458;2022-12-18T08:43:25;27.83;;;7.95;;
69769;SDS011;57282;52.514;13.458;2022-12-18T08:46:11;23.05;;;7.35;;
69769;SDS011;57282;52.514;13.458;2022-12-18T08:48:42;22.88;;;8.05;;
69769;SDS011;57282;52.514;13.458;2022-12-18T08:51:09;27.90;;;9.10;;
69769;SDS011;57282;52.514;13.458;2022-12-18T08:53:36;38.72;;;9.77;;
69769;SDS011;57282;52.514;13.458;2022-12-18T08:56:15;30.52;;;8.48;;
69769;SDS011;57282;52.514;13.458;2022-12-18T08:58:43;26.30;;;7.65;;
69769;SDS011;57282;52.514;13.458;2022-12-18T09:01:11;30.67;;;9.23;;
69769;SDS011;57282;52.514;13.458;2022-12-18T09:03:39;29.67;;;7.97;;
69769;SDS011;57282;52.514;13.458;2022-12-18T09:06:06;29.15;;;8.55;;
69769;SDS011;57282;52.514;13.458;2022-12-18T09:08:36;22.73;;;7.88;;
69769;SDS011;57282;52.514;13.458;2022-12-18T09:11:03;29.08;;;7.93;;
69769;SDS011;57282;52.514;13.458;2022-12-18T09:13:30;27.27;;;9.43;;
69769;SDS011;57282;52.514;13.458;2022-12-18T09:15:58;30.23;;;8.60;;
69769;SDS011;57282;52.514;13.458;2022-12-18T09:18:26;27.77;;;9.25;;
69769;SDS011;57282;52.514;13.458;2022-12-18T09:20:53;24.63;;;8.02;;
69769;SDS011;57282;52.514;13.458;2022-12-18T09:23:20;27.42;;;8.10;;
69769;SDS011;57282;52.514;13.458;2022-12-18T09:25:47;27.38;;;9.55;;
69769;SDS011;57282;52.514;13.458;2022-12-18T09:28:15;27.13;;;7.23;;
69769;SDS011;57282;52.514;13.458;2022-12-18T09:30:45;34.55;;;8.48;;
69769;SDS011;57282;52.514;13.458;2022-12-18T09:33:15;24.92;;;8.88;;
69769;SDS011;57282;52.514;13.458;2022-12-18T09:35:44;28.15;;;8.73;;
69769;SDS011;57282;52.514;13.458;2022-12-18T09:38:12;35.45;;;8.82;;
69769;SDS011;57282;52.514;13.458;2022-12-18T09:40:43;26.00;;;8.00;;
69769;SDS011;57282;52.514;13.458;2022-12-18T09:43:14;27.52;;;8.00;;
69769;SDS011;57282;52.514;13.458;2022-12-18T09:45:47;28.23;;;8.23;;
69769;SDS011;57282;52.514;13.458;2022-12-18T09:48:20;27.85;;;8.38;;
69769;SDS011;57282;52.514;13.458;2022-12-18T09:50:57;32.20;;;10.02;;
69769;SDS011;57282;52.514;13.458;2022-12-18T09:53:30;31.10;;;8.50;;
69769;SDS011;57282;52.514;13.458;2022-12-18T09:56:04;32.70;;;9.30;;
69769;SDS011;57282;52.514;13.458;2022-12-18T09:58:39;26.58;;;8.32;;
69769;SDS011;57282;52.514;13.458;2022-12-18T10:01:14;30.15;;;8.15;;
69769;SDS011;57282;52.514;13.458;2022-12-18T10:03:47;30.90;;;7.72;;
69769;SDS011;57282;52.514;13.458;2022-12-18T10:06:18;33.77;;;8.50;;
69769;SDS011;57282;52.514;13.458;2022-12-18T10:08:54;30.23;;;8.93;;
69769;SDS011;57282;52.514;13.458;2022-12-18T10:11:34;31.95;;;8.32;;
69769;SDS011;57282;52.514;13.458;2022-12-18T10:14:10;26.33;;;8.68;;
69769;SDS011;57282;52.514;13.458;2022-12-18T10:16:52;36.25;;;9.52;;
69769;SDS011;57282;52.514;13.458;2022-12-18T10:19:33;29.70;;;8.93;;
69769;SDS011;57282;52.514;13.458;2022-12-18T10:22:18;32.83;;;8.68;;
69769;SDS011;57282;52.514;13.458;2022-12-18T10:25:05;32.25;;;9.02;;
69769;SDS011;57282;52.514;13.458;2022-12-18T10:27:46;35.47;;;9.65;;
69769;SDS011;57282;52.514;13.458;2022-12-18T10:30:18;30.92;;;8.52;;
69769;SDS011;57282;52.514;13.458;2022-12-18T10:32:47;35.83;;;9.53;;
69769;SDS011;57282;52.514;13.458;2022-12-18T10:35:15;39.25;;;8.82;;
69769;SDS011;57282;52.514;13.458;2022-12-18T10:38:00;33.40;;;9.52;;
69769;SDS011;57282;52.514;13.458;2022-12-18T10:40:30;32.78;;;9.02;;
69769;SDS011;57282;52.514;13.458;2022-12-18T10:43:04;36.20;;;9.75;;
69769;SDS011;57282;52.514;13.458;2022-12-18T10:45:38;33.50;;;8.77;;
69769;SDS011;57282;52.514;13.458;2022-12-18T10:48:17;29.58;;;8.63;;
69769;SDS011;57282;52.514;13.458;2022-12-18T10:50:48;33.30;;;10.40;;
69769;SDS011;57282;52.514;13.458;2022-12-18T10:53:19;28.30;;;8.32;;
69769;SDS011;57282;52.514;13.458;2022-12-18T10:55:50;40.22;;;9.10;;
69769;SDS011;57282;52.514;13.458;2022-12-18T10:58:22;38.73;;;9.37;;
69769;SDS011;57282;52.514;13.458;2022-12-18T11:01:05;32.75;;;9.13;;
69769;SDS011;57282;52.514;13.458;2022-12-18T11:03:37;41.20;;;10.65;;
69769;SDS011;57282;52.514;13.458;2022-12-18T11:06:07;37.03;;;8.52;;
69769;SDS011;57282;52.514;13.458;2022-12-18T11:08:39;41.42;;;10.98;;
69769;SDS011;57282;52.514;13.458;2022-12-18T11:11:22;34.90;;;9.23;;
69769;SDS011;57282;52.514;13.458;2022-12-18T11:13:54;28.65;;;9.07;;
69769;SDS011;57282;52.514;13.458;2022-12-18T11:16:28;30.63;;;8.13;;
69769;SDS011;57282;52.514;13.458;2022-12-18T11:19:12;31.58;;;8.35;;
69769;SDS011;57282;52.514;13.458;2022-12-18T11:21:49;28.08;;;8.57;;
69769;SDS011;57282;52.514;13.458;2022-12-18T11:24:22;29.90;;;8.03;;
69769;SDS011;57282;52.514;13.458;2022-12-18T11:26:56;31.17;;;9.32;;
69769;SDS011;57282;52.514;13.458;2022-12-18T11:29:28;29.75;;;9.07;;
69769;SDS011;57282;52.514;13.458;2022-12-18T11:34:55;30.85;;;9.75;;
69769;SDS011;57282;52.514;13.458;2022-12-18T11:37:29;30.27;;;8.93;;
69769;SDS011;57282;52.514;13.458;2022-12-18T11:40:00;35.63;;;9.65;;
69769;SDS011;57282;52.514;13.458;2022-12-18T11:42:35;33.83;;;9.05;;
69769;SDS011;57282;52.514;13.458;2022-12-18T11:45:21;29.52;;;9.15;;
69769;SDS011;57282;52.514;13.458;2022-12-18T11:47:56;28.17;;;8.07;;
69769;SDS011;57282;52.514;13.458;2022-12-18T11:50:32;28.13;;;8.43;;
69769;SDS011;57282;52.514;13.458;2022-12-18T11:53:12;28.40;;;8.50;;
69769;SDS011;57282;52.514;13.458;2022-12-18T11:55:41;32.17;;;9.38;;
69769;SDS011;57282;52.514;13.458;2022-12-18T11:58:24;26.60;;;8.07;;
69769;SDS011;57282;52.514;13.458;2022-12-18T12:01:07;28.30;;;8.30;;
69769;SDS011;57282;52.514;13.458;2022-12-18T12:03:48;23.70;;;7.77;;
69769;SDS011;57282;52.514;13.458;2022-12-18T12:06:43;31.23;;;8.00;;
69769;SDS011;57282;52.514;13.458;2022-12-18T12:09:22;27.75;;;8.85;;
69769;SDS011;57282;52.514;13.458;2022-12-18T12:12:05;26.38;;;8.00;;
69769;SDS011;57282;52.514;13.458;2022-12-18T12:14:55;24.33;;;8.90;;
69769;SDS011;57282;52.514;13.458;2022-12-18T12:17:37;23.37;;;7.23;;
69769;SDS011;57282;52.514;13.458;2022-12-18T12:20:13;31.95;;;9.30;;
69769;SDS011;57282;52.514;13.458;2022-12-18T12:22:49;24.15;;;8.27;;
69769;SDS011;57282;52.514;13.458;2022-12-18T12:25:30;26.58;;;7.40;;
69769;SDS011;57282;52.514;13.458;2022-12-18T12:28:12;27.25;;;8.00;;
69769;SDS011;57282;52.514;13.458;2022-12-18T12:30:55;27.00;;;8.93;;
69769;SDS011;57282;52.514;13.458;2022-12-18T12:33:39;26.27;;;7.82;;
69769;SDS011;57282;52.514;13.458;2022-12-18T12:36:21;23.25;;;8.02;;
69769;SDS011;57282;52.514;13.458;2022-12-18T12:38:59;29.95;;;8.15;;
69769;SDS011;57282;52.514;13.458;2022-12-18T12:41:32;25.92;;;8.45;;
69769;SDS011;57282;52.514;13.458;2022-12-18T12:44:22;27.50;;;8.73;;
69769;SDS011;57282;52.514;13.458;2022-12-18T12:46:55;24.70;;;8.20;;
69769;SDS011;57282;52.514;13.458;2022-12-18T12:49:27;21.08;;;8.18;;
69769;SDS011;57282;52.514;13.458;2022-12-18T12:52:03;27.65;;;8.45;;
69769;SDS011;57282;52.514;13.458;2022-12-18T12:54:34;25.17;;;8.15;;
69769;SDS011;57282;52.514;13.458;2022-12-18T12:57:04;23.37;;;7.87;;
69769;SDS011;57282;52.514;13.458;2022-12-18T12:59:45;25.67;;;7.60;;
69769;SDS011;57282;52.514;13.458;2022-12-18T13:02:27;25.65;;;8.57;;
69769;SDS011;57282;52.514;13.458;2022-12-18T13:05:01;24.05;;;7.25;;
69769;SDS011;57282;52.514;13.458;2022-12-18T13:07:45;26.42;;;8.57;;
69769;SDS011;57282;52.514;13.458;2022-12-18T13:10:24;27.73;;;7.60;;
69769;SDS011;57282;52.514;13.458;2022-12-18T13:13:03;29.15;;;8.60;;
69769;SDS011;57282;52.514;13.458;2022-12-18T13:15:34;29.65;;;10.70;;
69769;SDS011;57282;52.514;13.458;2022-12-18T13:18:10;31.30;;;8.93;;
69769;SDS011;57282;52.514;13.458;2022-12-18T13:20:43;29.35;;;9.60;;
69769;SDS011;57282;52.514;13.458;2022-12-18T13:28:59;30.77;;;9.07;;
69769;SDS011;57282;52.514;13.458;2022-12-18T13:34:48;28.92;;;9.25;;
69769;SDS011;57282;52.514;13.458;2022-12-18T13:37:39;25.30;;;7.83;;
69769;SDS011;57282;52.514;13.458;2022-12-18T13:43:36;25.88;;;8.38;;
69769;SDS011;57282;52.514;13.458;2022-12-18T13:46:18;25.23;;;7.75;;
69769;SDS011;57282;52.514;13.458;2022-12-18T13:48:55;32.90;;;9.20;;
69769;SDS011;57282;52.514;13.458;2022-12-18T13:51:27;26.90;;;9.13;;
69769;SDS011;57282;52.514;13.458;2022-12-18T13:53:58;25.85;;;9.05;;
69769;SDS011;57282;52.514;13.458;2022-12-18T13:56:29;32.17;;;10.55;;
69769;SDS011;57282;52.514;13.458;2022-12-18T13:59:18;25.42;;;9.57;;
69769;SDS011;57282;52.514;13.458;2022-12-18T14:01:48;29.02;;;10.25;;
69769;SDS011;57282;52.514;13.458;2022-12-18T14:04:22;26.03;;;8.87;;
69769;SDS011;57282;52.514;13.458;2022-12-18T14:06:53;29.15;;;9.00;;
69769;SDS011;57282;52.514;13.458;2022-12-18T14:09:25;28.10;;;10.65;;
69769;SDS011;57282;52.514;13.458;2022-12-18T14:11:56;26.60;;;9.95;;
69769;SDS011;57282;52.514;13.458;2022-12-18T14:14:38;29.00;;;9.95;;
69769;SDS011;57282;52.514;13.458;2022-12-18T14:17:11;25.17;;;10.33;;
69769;SDS011;57282;52.514;13.458;2022-12-18T14:19:42;31.70;;;9.52;;
69769;SDS011;57282;52.514;13.458;2022-12-18T14:22:16;28.00;;;10.73;;
69769;SDS011;57282;52.514;13.458;2022-12-18T14:24:46;29.40;;;10.35;;
69769;SDS011;57282;52.514;13.458;2022-12-18T14:27:21;25.90;;;9.55;;
69769;SDS011;57282;52.514;13.458;2022-12-18T14:29:50;29.47;;;10.50;;
69769;SDS011;57282;52.514;13.458;2022-12-18T14:32:18;32.67;;;10.57;;
69769;SDS011;57282;52.514;13.458;2022-12-18T14:34:49;31.48;;;11.50;;
69769;SDS011;57282;52.514;13.458;2022-12-18T14:37:20;26.90;;;9.55;;
69769;SDS011;57282;52.514;13.458;2022-12-18T14:39:56;25.23;;;8.82;;
69769;SDS011;57282;52.514;13.458;2022-12-18T14:42:25;22.90;;;7.93;;
69769;SDS011;57282;52.514;13.458;2022-12-18T14:48:00;20.33;;;7.72;;
69769;SDS011;57282;52.514;13.458;2022-12-18T14:50:37;20.25;;;7.63;;
69769;SDS011;57282;52.514;13.458;2022-12-18T14:53:16;21.25;;;8.10;;
69769;SDS011;57282;52.514;13.458;2022-12-18T14:55:47;25.80;;;8.37;;
69769;SDS011;57282;52.514;13.458;2022-12-18T14:58:16;19.38;;;7.97;;
69769;SDS011;57282;52.514;13.458;2022-12-18T15:00:47;22.65;;;8.80;;
69769;SDS011;57282;52.514;13.458;2022-12-18T15:03:14;22.08;;;7.22;;